KCEC/CEC METAR and TAF weather

Enter ICAO airport designator
Station Type Date Time Source
KCEC METAR 2019/05/27 08:56 UTC NOAA

KCEC 270856Z AUTO 15011KT 5SM BR OVC003 11/11 A3002 RMK AO2 CIG 002V007 SLP167 T01110106 51007


Station Type Date Time Source
KCEC Decoded METAR 2019/05/27 08:56 UTC NOAA

CRESCENT CITY MC NAMARA, CA, United States (KCEC) 41-47N 124-14W
May 27, 2019 - 04:56 AM EDT / 2019.05.27 0856 UTC
Wind: from the SSE (150 degrees) at 13 MPH (11 KT):0
Visibility: 5 mile(s):0
Sky conditions: overcast
Weather: mist
Temperature: 52.0 F (11.1 C)
Dew Point: 51.1 F (10.6 C)
Relative Humidity: 96%
Pressure (altimeter): 30.02 in. Hg (1016 hPa)
Pressure tendency: 0.02 inches (0.7 hPa) higher than three hours ago
ob: KCEC 270856Z AUTO 15011KT 5SM BR OVC003 11/11 A3002 RMK AO2 CIG 002V007 SLP167 T01110106 51007
cycle: 9

Station Type Date Time Source
KCEC TAF 2019/05/27 09:42 UTC NOAA

TAF
AMD KCEC 270840Z 2709/2806 00000KT 4SM BR OVC004
FM271700 27004KT 6SM BR OVC007
FM272100 31010KT P6SM SCT009
FM280100 34005KT 5SM BR BKN007

Example: see airport list